UPSVAC Airport Information Service

Philadelphia International Airport (1000-1099)

ICAO: KPHL Country: United States
Latitude: 39.8719 Longitude: -75.2411
Latest Arrival : UPS1160 (EDDK-KPHL) Latest Departure : AMF2021 (KPHL-KBUF)


WX CaptureLIVE
Data provided by noaa.gov | Fetched at 18:03:18

METAR : KPHL 281754Z VRB06KT 10SM SCT048 BKN055 BKN120 28/17 A2998 RMK AO2 SLP151 T02830172 10300 20239 58004

TAF : KPHL 281736Z 2818/2924 36008KT P6SM SCT045 FM282300 09006KT P6SM SCT100 FM290900 11003KT P6SM VCSH SCT020 BKN060 FM291200 15005KT P6SM VCSH SCT015 BKN045 FM291500 19009KT P6SM VCSH BKN040 PROB30 2915/2919 5SM -SHRA FM291900 16007KT P6SM VCTS BKN040CB


Runway Data for KPHL
Data provided by openaviationdata.com

Runway ID Mag Var Hdg Length Elevation Surface ILS Freq ILS Id ILS Slope
8 -10 85° 4993 ft 36 ft Asphalt -- -- --
09L -10 85° 9488 ft 36 ft Concrete 108.95 IVII 3
09R -10 85° 10486 ft 36 ft Asphalt 109.3 IPHL 3
17 -10 169° 6503 ft 36 ft Concrete 108.75 IMYY 3
26 -10 265° 4993 ft 36 ft Asphalt 111.55 ILLH 3
27L -10 265° 10486 ft 36 ft Asphalt 109.3 IGLC 3
27R -10 265° 9488 ft 36 ft Concrete 108.95 IPDP 3
35 -10 349° 6503 ft 36 ft Concrete -- -- --

Philadelphia International Airport (1000-1099), United States
Use only for reference purposes



Not for navigational purposes.